Time;durP1;ratioP1;P1;durP2;ratioP2;P2;SDS_P1;SDS_P2;PMS_P1;PMS_P2;Temp;Humidity;BMP_temperature;BMP_pressure;BME280_temperature;BME280_humidity;BME280_pressure;Samples;Min_cycle;Max_cycle;Signal;HPM_P1;HPM_P2
2023/03/19 00:02:18;;;;;;;;;;;;;;;;;;4942233;28;19923;-96
2023/03/19 00:04:44;;;;;;;;;;;;;;;;;;4942211;28;20456;-96
2023/03/19 00:07:10;;;;;;;;;;;;;;;;;;4942009;28;19928;-96
2023/03/19 00:09:37;;;;;;;;;;;;;;;;;;4958536;28;20288;-96
2023/03/19 00:12:03;;;;;;;;;;;;;;;;;;4941607;28;20016;-96
2023/03/19 00:14:29;;;;;;;;;;;;;;;;;;4941909;28;19930;-96
2023/03/19 00:16:58;;;;;;;;;;;;;;;;;;4957359;28;19968;-96
2023/03/19 00:19:24;;;;;;;;;;;;;;;;;;4941887;28;20008;-96
2023/03/19 00:21:58;;;;;;;;;;;;;;;;;;4942333;28;20388;-96
2023/03/19 00:24:24;;;;;;;;;;;;;;;;;;4941993;28;19922;-96
2023/03/19 00:26:50;;;;;;;;;;;;;;;;;;4941909;28;20405;-96
2023/03/19 00:29:21;;;;;;;;;;;;;;;;;;4957756;28;20024;-96
2023/03/19 00:31:47;;;;;;;;;;;;;;;;;;4941556;28;20377;-96
2023/03/19 00:34:17;;;;;;;;;;;;;;;;;;4942043;28;19968;-96
2023/03/19 00:36:43;;;;;;;;;;;;;;;;;;4941659;28;19929;-96
2023/03/19 00:39:11;;;;;;;;;;;;;;;;;;4942189;28;19969;-96
2023/03/19 00:41:40;;;;;;;;;;;;;;;;;;4943403;28;19922;-96
2023/03/19 00:44:06;;;;;;;;;;;;;;;;;;4942494;28;19922;-96
2023/03/19 00:49:46;;;;;;;;;;;;;;;;;;4976892;28;19942;-96
2023/03/19 01:01:05;;;;;;;;;;;;;;;;;;4968250;28;19980;-96
2023/03/19 01:17:15;;;;;;;;;;;;;;;;;;4970465;28;19927;-95
2023/03/19 01:19:46;;;;;;;;;;;;;;;;;;4925920;29;19922;-95
2023/03/19 01:22:16;;;;;;;;;;;;;;;;;;4937775;28;19923;-93
2023/03/19 01:24:42;;;;;;;;;;;;;;;;;;4948897;29;19927;-94
2023/03/19 01:27:14;;;;;;;;;;;;;;;;;;4935030;29;19930;-96
2023/03/19 01:29:40;;;;;;;;;;;;;;;;;;4907965;29;19923;-95
2023/03/19 01:32:10;;;;;;;;;;;;;;;;;;4907336;29;19931;-94
2023/03/19 01:34:36;;;;;;;;;;;;;;;;;;4906759;29;19993;-95
2023/03/19 01:37:05;;;;;;;;;;;;;;;;;;4922044;29;19923;-96
2023/03/19 01:39:34;;;;;;;;;;;;;;;;;;4923543;29;19923;-95
2023/03/19 01:42:08;;;;;;;;;;;;;;;;;;4923872;29;19990;-96
2023/03/19 06:59:26;;;;;;;;;;;;;;;;;;5724488;23;19925;-92
2023/03/19 07:04:51;;;;;;;;;;;;;;;;;;4933055;28;19926;-96
2023/03/19 07:31:51;;;;;;;;;;;;;;;;;;4959490;29;20050;-95
2023/03/19 07:34:20;;;;;;;;;;;;;;;;;;4925163;29;20409;-96
2023/03/19 07:36:46;;;;;;;;;;;;;;;;;;4907745;29;19923;-96
2023/03/19 07:39:12;;;;;;;;;;;;;;;;;;4905771;29;19930;-96
2023/03/19 07:41:38;;;;;;;;;;;;;;;;;;4905241;29;19958;-95
2023/03/19 07:44:04;;;;;;;;;;;;;;;;;;4905752;29;20010;-96
2023/03/19 07:46:30;;;;;;;;;;;;;;;;;;4906435;29;20452;-95
2023/03/19 07:48:56;;;;;;;;;;;;;;;;;;4905685;29;20009;-95
2023/03/19 07:51:25;;;;;;;;;;;;;;;;;;4906912;29;20020;-92
2023/03/19 07:53:51;;;;;;;;;;;;;;;;;;4908971;29;19933;-92
2023/03/19 07:56:17;;;;;;;;;;;;;;;;;;4908746;29;19923;-92
2023/03/19 07:58:43;;;;;;;;;;;;;;;;;;4921964;29;19923;-95
2023/03/19 08:01:10;;;;;;;;;;;;;;;;;;4906957;29;19930;-96
2023/03/19 08:06:12;;;;;;;;;;;;;;;;;;5381673;23;19931;-95
2023/03/19 08:08:42;;;;;;;;;;;;;;;;;;4922347;29;19922;-95
2023/03/19 08:11:18;;;;;;;;;;;;;;;;;;;;;
2023/03/19 08:13:44;;;;;;;;;;;;;;;;;;4921334;29;19927;-95
2023/03/19 08:16:10;;;;;;;;;;;;;;;;;;4912300;29;19983;-96
2023/03/19 08:18:36;;;;;;;;;;;;;;;;;;4924857;29;19926;-95
2023/03/19 08:21:02;;;;;;;;;;;;;;;;;;4924414;29;19923;-94
2023/03/19 08:23:34;;;;;;;;;;;;;;;;;;4920637;29;19977;-95
2023/03/19 08:47:00;;;;;;;;;;;;;;;;;;5281186;23;19930;-96
2023/03/19 08:49:35;;;;;;;;;;;;;;;;;;4954172;28;19911;-96
2023/03/19 09:55:45;;;;;;;;;;;;;;;;;;5591793;23;19927;-96
2023/03/19 09:58:11;;;;;;;;;;;;;;;;;;4913018;29;19937;-96
2023/03/19 10:00:37;;;;;;;;;;;;;;;;;;4911477;29;20022;-92
2023/03/19 10:03:03;;;;;;;;;;;;;;;;;;4907988;29;20373;-93
2023/03/19 10:05:30;;;;;;;;;;;;;;;;;;4908819;29;20334;-94
2023/03/19 10:07:56;;;;;;;;;;;;;;;;;;4909702;29;19923;-93
2023/03/19 10:10:22;;;;;;;;;;;;;;;;;;4909101;29;20054;-94
2023/03/19 10:12:48;;;;;;;;;;;;;;;;;;4909983;29;20286;-96
2023/03/19 10:15:14;;;;;;;;;;;;;;;;;;4910425;29;19954;-96
2023/03/19 10:20:32;;;;;;;;;;;;;;;;;;4910470;29;19951;-96
2023/03/19 10:23:02;;;;;;;;;;;;;;;;;;4911366;29;19923;-96
2023/03/19 10:25:32;;;;;;;;;;;;;;;;;;4909889;29;19934;-92
2023/03/19 10:27:59;;;;;;;;;;;;;;;;;;4906688;29;20362;-93
2023/03/19 10:30:25;;;;;;;;;;;;;;;;;;4906665;29;19935;-93
2023/03/19 10:32:57;;;;;;;;;;;;;;;;;;4905865;29;19936;-94
2023/03/19 10:35:23;;;;;;;;;;;;;;;;;;4905535;29;19923;-94
2023/03/19 10:37:49;;;;;;;;;;;;;;;;;;4923330;29;19930;-94
2023/03/19 10:40:15;;;;;;;;;;;;;;;;;;4925360;29;19922;-95
2023/03/19 10:42:41;;;;;;;;;;;;;;;;;;4925199;29;19938;-94
2023/03/19 10:45:07;;;;;;;;;;;;;;;;;;4925882;29;20373;-96
2023/03/19 10:47:36;;;;;;;;;;;;;;;;;;4929172;29;19923;-96
2023/03/19 10:50:02;;;;;;;;;;;;;;;;;;4930794;29;20068;-96
2023/03/19 10:55:30;;;;;;;;;;;;;;;;;;4923083;29;20278;-95
2023/03/19 11:03:21;;;;;;;;;;;;;;;;;;5265825;23;19989;-96
2023/03/19 11:05:50;;;;;;;;;;;;;;;;;;4917562;29;19990;-95
2023/03/19 11:08:17;;;;;;;;;;;;;;;;;;4906153;29;19927;-95
2023/03/19 11:10:43;;;;;;;;;;;;;;;;;;4921884;29;19978;-95
2023/03/19 11:13:08;;;;;;;;;;;;;;;;;;4905541;29;20078;-95
2023/03/19 11:15:37;;;;;;;;;;;;;;;;;;4906277;29;19982;-94
2023/03/19 11:21:07;;;;;;;;;;;;;;;;;;4937766;29;19947;-93
2023/03/19 11:23:33;;;;;;;;;;;;;;;;;;4905428;29;19929;-93
2023/03/19 11:26:00;;;;;;;;;;;;;;;;;;4905797;29;19923;-96
2023/03/19 11:28:31;;;;;;;;;;;;;;;;;;4905434;29;19923;-96
2023/03/19 11:30:57;;;;;;;;;;;;;;;;;;4905672;29;19929;-94
2023/03/19 11:33:26;;;;;;;;;;;;;;;;;;4905753;29;19927;-95
2023/03/19 11:35:51;;;;;;;;;;;;;;;;;;4905420;29;19923;-96
2023/03/19 11:38:21;;;;;;;;;;;;;;;;;;4904956;29;19929;-89
2023/03/19 11:40:46;;;;;;;;;;;;;;;;;;4903766;29;20349;-92
2023/03/19 11:43:12;;;;;;;;;;;;;;;;;;4905335;29;19922;-92
2023/03/19 11:45:38;;;;;;;;;;;;;;;;;;4923079;29;20021;-91
2023/03/19 11:48:04;;;;;;;;;;;;;;;;;;4923320;29;19989;-94
2023/03/19 11:50:30;;;;;;;;;;;;;;;;;;4923153;29;19930;-93
2023/03/19 11:53:01;;;;;;;;;;;;;;;;;;4923199;29;20432;-94
2023/03/19 11:55:27;;;;;;;;;;;;;;;;;;4923064;29;19919;-91
2023/03/19 11:57:53;;;;;;;;;;;;;;;;;;4923295;29;19922;-93
2023/03/19 12:03:32;;;;;;;;;;;;;;;;;;4955444;28;19930;-95
2023/03/19 12:06:10;;;;;;;;;;;;;;;;;;4922931;29;20398;-95
2023/03/19 12:09:20;;;;;;;;;;;;;;;;;;4953067;29;20353;-95
2023/03/19 12:11:49;;;;;;;;;;;;;;;;;;4939371;29;20021;-96
2023/03/19 12:14:15;;;;;;;;;;;;;;;;;;4923753;29;19969;-95
2023/03/19 12:16:42;;;;;;;;;;;;;;;;;;4923345;29;20412;-95
2023/03/19 12:19:10;;;;;;;;;;;;;;;;;;4922876;29;19972;-95
2023/03/19 12:21:36;;;;;;;;;;;;;;;;;;4923461;29;20389;-94
2023/03/19 12:24:02;;;;;;;;;;;;;;;;;;4923760;29;19922;-95
2023/03/19 12:47:15;;;;;;;;;;;;;;;;;;4945701;23;19995;-93
2023/03/19 12:49:42;;;;;;;;;;;;;;;;;;4920306;29;19923;-94
2023/03/19 12:52:08;;;;;;;;;;;;;;;;;;4904328;29;19934;-95
2023/03/19 12:54:34;;;;;;;;;;;;;;;;;;4904134;29;19923;-93
2023/03/19 12:57:01;;;;;;;;;;;;;;;;;;4904898;29;20005;-96
2023/03/19 12:59:27;;;;;;;;;;;;;;;;;;4904554;29;19981;-93
2023/03/19 13:01:53;;;;;;;;;;;;;;;;;;4904373;29;20374;-94
2023/03/19 13:04:19;;;;;;;;;;;;;;;;;;4904044;29;20366;-90
2023/03/19 13:06:48;;;;;;;;;;;;;;;;;;4907669;29;19930;-94
2023/03/19 13:09:14;;;;;;;;;;;;;;;;;;4917906;29;19993;-93
2023/03/19 13:11:40;;;;;;;;;;;;;;;;;;4902599;29;19927;-92
2023/03/19 13:14:09;;;;;;;;;;;;;;;;;;4919001;29;20421;-92
2023/03/19 13:16:35;;;;;;;;;;;;;;;;;;4906696;29;20235;-92
2023/03/19 13:19:01;;;;;;;;;;;;;;;;;;4906515;29;19923;-92
2023/03/19 13:21:27;;;;;;;;;;;;;;;;;;4906619;29;19927;-90
2023/03/19 13:23:53;;;;;;;;;;;;;;;;;;4906157;29;20017;-92
2023/03/19 13:26:19;;;;;;;;;;;;;;;;;;4906643;29;20132;-92
2023/03/19 13:28:48;;;;;;;;;;;;;;;;;;4906517;29;19970;-93
2023/03/19 13:31:14;;;;;;;;;;;;;;;;;;4907129;29;19923;-91
2023/03/19 13:33:40;;;;;;;;;;;;;;;;;;4906398;29;19927;-91
2023/03/19 13:36:07;;;;;;;;;;;;;;;;;;4906261;29;19990;-93
2023/03/19 13:38:33;;;;;;;;;;;;;;;;;;4906766;29;19930;-92
2023/03/19 13:40:59;;;;;;;;;;;;;;;;;;4906110;29;20302;-91
2023/03/19 13:43:26;;;;;;;;;;;;;;;;;;4906020;29;19923;-92
2023/03/19 13:45:52;;;;;;;;;;;;;;;;;;4921872;29;20374;-92
2023/03/19 13:48:19;;;;;;;;;;;;;;;;;;4906741;29;19938;-95
2023/03/19 13:50:45;;;;;;;;;;;;;;;;;;4910232;29;20441;-96
2023/03/19 13:53:12;;;;;;;;;;;;;;;;;;4907232;29;19927;-93
2023/03/19 13:55:38;;;;;;;;;;;;;;;;;;4907237;29;19930;-93
2023/03/19 13:58:11;;;;;;;;;;;;;;;;;;4906591;29;19919;-95
2023/03/19 14:00:37;;;;;;;;;;;;;;;;;;4907142;29;19923;-91
2023/03/19 14:03:03;;;;;;;;;;;;;;;;;;4906168;29;19929;-94
2023/03/19 14:05:29;;;;;;;;;;;;;;;;;;4906332;29;20018;-93
2023/03/19 14:14:13;;;;;;;;;;;;;;;;;;4958597;29;19930;-94
2023/03/19 14:16:39;;;;;;;;;;;;;;;;;;4925469;29;19966;-94
2023/03/19 14:19:05;;;;;;;;;;;;;;;;;;4925985;29;19922;-93
2023/03/19 14:21:31;;;;;;;;;;;;;;;;;;4925404;29;19934;-93
2023/03/19 14:23:59;;;;;;;;;;;;;;;;;;4926297;29;19945;-95
2023/03/19 14:29:38;;;;;;;;;;;;;;;;;;4875023;29;19932;-96
2023/03/19 14:32:04;;;;;;;;;;;;;;;;;;4850876;29;20148;-95
2023/03/19 14:34:30;;;;;;;;;;;;;;;;;;4889761;29;20347;-93
2023/03/19 14:36:56;;;;;;;;;;;;;;;;;;4925215;29;19934;-95
2023/03/19 14:39:23;;;;;;;;;;;;;;;;;;4925417;29;19922;-93
2023/03/19 14:41:49;;;;;;;;;;;;;;;;;;4925234;29;19922;-94
2023/03/19 14:44:15;;;;;;;;;;;;;;;;;;4925030;29;19973;-94
2023/03/19 14:46:41;;;;;;;;;;;;;;;;;;4924901;29;19934;-94
2023/03/19 14:49:07;;;;;;;;;;;;;;;;;;4925003;29;19923;-94
2023/03/19 14:51:33;;;;;;;;;;;;;;;;;;4924733;29;19926;-94
2023/03/19 14:53:59;;;;;;;;;;;;;;;;;;4925001;29;19922;-96
2023/03/19 14:56:25;;;;;;;;;;;;;;;;;;4924956;29;19922;-95
2023/03/19 14:58:53;;;;;;;;;;;;;;;;;;4924807;29;19995;-95
2023/03/19 15:01:19;;;;;;;;;;;;;;;;;;4924990;29;20005;-92
2023/03/19 15:03:45;;;;;;;;;;;;;;;;;;4924342;29;19977;-93
2023/03/19 15:06:11;;;;;;;;;;;;;;;;;;4923958;29;19922;-91
2023/03/19 15:08:39;;;;;;;;;;;;;;;;;;4923496;29;19926;-91
2023/03/19 15:11:05;;;;;;;;;;;;;;;;;;4923358;29;19930;-91
2023/03/19 15:13:31;;;;;;;;;;;;;;;;;;4923700;29;20021;-91
2023/03/19 15:15:59;;;;;;;;;;;;;;;;;;4923395;29;20009;-90
2023/03/19 15:18:25;;;;;;;;;;;;;;;;;;4903653;29;20025;-90
2023/03/19 15:20:54;;;;;;;;;;;;;;;;;;4920404;29;19982;-92
2023/03/19 15:23:20;;;;;;;;;;;;;;;;;;4921129;29;19930;-92
2023/03/19 15:25:46;;;;;;;;;;;;;;;;;;4935488;29;19934;-93
2023/03/19 15:28:12;;;;;;;;;;;;;;;;;;4922868;29;19930;-92
2023/03/19 15:30:38;;;;;;;;;;;;;;;;;;4923282;29;19927;-91
2023/03/19 15:33:05;;;;;;;;;;;;;;;;;;4923255;29;19973;-91
2023/03/19 15:35:31;;;;;;;;;;;;;;;;;;4922834;29;19931;-93
2023/03/19 15:37:57;;;;;;;;;;;;;;;;;;4919774;29;19927;-92
2023/03/19 15:40:23;;;;;;;;;;;;;;;;;;4922605;29;19930;-91
2023/03/19 15:42:49;;;;;;;;;;;;;;;;;;4922718;29;19923;-90
2023/03/19 15:45:15;;;;;;;;;;;;;;;;;;4922732;29;20018;-92
2023/03/19 15:47:40;;;;;;;;;;;;;;;;;;4895213;29;19923;-92
2023/03/19 15:50:06;;;;;;;;;;;;;;;;;;4917221;29;19992;-93
2023/03/19 15:52:32;;;;;;;;;;;;;;;;;;4916856;29;19927;-92
2023/03/19 15:54:58;;;;;;;;;;;;;;;;;;4917011;29;20442;-92
2023/03/19 15:57:24;;;;;;;;;;;;;;;;;;4916186;29;19923;-94
2023/03/19 15:59:50;;;;;;;;;;;;;;;;;;4917298;29;20010;-92
2023/03/19 16:02:16;;;;;;;;;;;;;;;;;;4916524;29;19923;-93
2023/03/19 16:04:42;;;;;;;;;;;;;;;;;;4916523;29;19931;-92
2023/03/19 16:07:08;;;;;;;;;;;;;;;;;;4916275;29;19930;-93
2023/03/19 16:09:34;;;;;;;;;;;;;;;;;;4900739;29;20380;-92
2023/03/19 16:12:00;;;;;;;;;;;;;;;;;;4916550;29;19927;-93
2023/03/19 16:14:29;;;;;;;;;;;;;;;;;;4931738;29;19927;-93
2023/03/19 16:16:55;;;;;;;;;;;;;;;;;;4916539;29;19970;-93
2023/03/19 16:19:24;;;;;;;;;;;;;;;;;;4915789;29;19923;-90
2023/03/19 16:21:50;;;;;;;;;;;;;;;;;;4916174;29;20009;-92
2023/03/19 16:24:23;;;;;;;;;;;;;;;;;;4919757;29;20018;-95
2023/03/19 16:26:49;;;;;;;;;;;;;;;;;;4904120;29;19923;-95
2023/03/19 16:29:16;;;;;;;;;;;;;;;;;;4918087;29;19923;-95
2023/03/19 16:31:42;;;;;;;;;;;;;;;;;;4917156;29;19927;-91
2023/03/19 16:34:11;;;;;;;;;;;;;;;;;;4931211;29;19923;-92
2023/03/19 16:36:37;;;;;;;;;;;;;;;;;;4915615;29;19927;-92
2023/03/19 16:39:03;;;;;;;;;;;;;;;;;;4916064;29;19923;-91
2023/03/19 16:41:31;;;;;;;;;;;;;;;;;;4916080;29;20366;-91
2023/03/19 16:43:57;;;;;;;;;;;;;;;;;;4915610;29;19924;-91
2023/03/19 16:46:22;;;;;;;;;;;;;;;;;;4915593;29;19927;-90
2023/03/19 16:48:49;;;;;;;;;;;;;;;;;;4914936;29;19923;-90
2023/03/19 16:51:15;;;;;;;;;;;;;;;;;;4915446;29;19986;-90
2023/03/19 16:53:44;;;;;;;;;;;;;;;;;;4915174;29;19927;-90
2023/03/19 16:56:10;;;;;;;;;;;;;;;;;;4915881;29;19933;-90
2023/03/19 16:58:36;;;;;;;;;;;;;;;;;;4915532;29;19927;-89
2023/03/19 17:01:02;;;;;;;;;;;;;;;;;;4915599;29;19923;-91
2023/03/19 17:03:29;;;;;;;;;;;;;;;;;;4915298;29;20295;-89
2023/03/19 17:05:55;;;;;;;;;;;;;;;;;;4931419;29;20394;-90
2023/03/19 17:08:22;;;;;;;;;;;;;;;;;;4915936;29;19950;-92
2023/03/19 17:10:48;;;;;;;;;;;;;;;;;;4915529;29;20018;-91
2023/03/19 17:13:14;;;;;;;;;;;;;;;;;;4915373;29;20373;-90
2023/03/19 17:15:40;;;;;;;;;;;;;;;;;;4915384;29;19927;-92
2023/03/19 17:18:06;;;;;;;;;;;;;;;;;;4915222;29;19982;-90
2023/03/19 17:20:33;;;;;;;;;;;;;;;;;;4914910;29;20331;-89
2023/03/19 17:23:00;;;;;;;;;;;;;;;;;;4931289;29;19955;-91
2023/03/19 17:25:25;;;;;;;;;;;;;;;;;;4915179;29;19931;-90
2023/03/19 17:27:51;;;;;;;;;;;;;;;;;;4914550;29;19927;-91
2023/03/19 17:30:17;;;;;;;;;;;;;;;;;;4915056;29;20368;-90
2023/03/19 17:32:43;;;;;;;;;;;;;;;;;;4942319;29;19927;-91
2023/03/19 17:35:09;;;;;;;;;;;;;;;;;;4903125;29;19940;-91
2023/03/19 17:37:35;;;;;;;;;;;;;;;;;;4916845;29;19923;-91
2023/03/19 17:40:01;;;;;;;;;;;;;;;;;;4918488;29;20454;-91
2023/03/19 17:42:28;;;;;;;;;;;;;;;;;;4917930;29;19978;-91
2023/03/19 17:44:55;;;;;;;;;;;;;;;;;;4902249;29;19923;-91
2023/03/19 17:47:21;;;;;;;;;;;;;;;;;;4917706;29;19930;-92
2023/03/19 17:49:47;;;;;;;;;;;;;;;;;;4903011;29;19946;-90
2023/03/19 17:52:13;;;;;;;;;;;;;;;;;;4902568;29;19927;-91
2023/03/19 17:54:39;;;;;;;;;;;;;;;;;;4902638;29;19923;-93
2023/03/19 17:57:05;;;;;;;;;;;;;;;;;;4902390;29;19970;-93
2023/03/19 17:59:32;;;;;;;;;;;;;;;;;;4902881;29;19975;-93
2023/03/19 18:02:07;;;;;;;;;;;;;;;;;;4903853;29;19933;-95
2023/03/19 18:04:36;;;;;;;;;;;;;;;;;;4908838;29;20372;-92
2023/03/19 18:07:02;;;;;;;;;;;;;;;;;;4906018;29;19923;-91
2023/03/19 18:09:28;;;;;;;;;;;;;;;;;;4905548;29;19926;-91
2023/03/19 18:11:54;;;;;;;;;;;;;;;;;;4905800;29;19930;-90
2023/03/19 18:14:20;;;;;;;;;;;;;;;;;;4904794;29;19938;-89
2023/03/19 18:16:46;;;;;;;;;;;;;;;;;;4905358;29;20270;-90
2023/03/19 18:19:12;;;;;;;;;;;;;;;;;;4905736;29;20010;-90
2023/03/19 18:21:38;;;;;;;;;;;;;;;;;;4905439;29;19972;-91
2023/03/19 18:24:04;;;;;;;;;;;;;;;;;;4921238;29;19923;-89
2023/03/19 18:26:30;;;;;;;;;;;;;;;;;;4905164;29;19923;-89
2023/03/19 18:28:56;;;;;;;;;;;;;;;;;;4904823;29;19923;-90
2023/03/19 18:31:22;;;;;;;;;;;;;;;;;;4905035;29;20017;-89
2023/03/19 18:33:48;;;;;;;;;;;;;;;;;;4904857;29;19927;-89
2023/03/19 18:36:17;;;;;;;;;;;;;;;;;;4921180;29;19926;-89
2023/03/19 18:38:43;;;;;;;;;;;;;;;;;;4905419;29;19933;-89
2023/03/19 18:41:09;;;;;;;;;;;;;;;;;;4904870;29;19923;-90
2023/03/19 18:43:35;;;;;;;;;;;;;;;;;;4905062;29;20013;-90
2023/03/19 18:46:01;;;;;;;;;;;;;;;;;;4906422;29;19950;-90
2023/03/19 18:48:26;;;;;;;;;;;;;;;;;;4921520;29;19923;-90
2023/03/19 18:50:52;;;;;;;;;;;;;;;;;;4906372;29;19950;-90
2023/03/19 18:53:18;;;;;;;;;;;;;;;;;;4904989;29;19974;-90
2023/03/19 18:55:44;;;;;;;;;;;;;;;;;;4904809;29;20263;-90
2023/03/19 18:58:12;;;;;;;;;;;;;;;;;;4905609;29;19923;-91
2023/03/19 19:00:38;;;;;;;;;;;;;;;;;;4905993;29;19926;-90
2023/03/19 19:03:04;;;;;;;;;;;;;;;;;;4920894;29;19969;-90
2023/03/19 19:05:30;;;;;;;;;;;;;;;;;;4905281;29;19927;-91
2023/03/19 19:07:56;;;;;;;;;;;;;;;;;;4907003;29;20275;-91
2023/03/19 19:10:22;;;;;;;;;;;;;;;;;;4906057;29;19922;-92
2023/03/19 19:12:48;;;;;;;;;;;;;;;;;;4912516;29;19982;-90
2023/03/19 19:15:14;;;;;;;;;;;;;;;;;;4924171;29;19923;-90
2023/03/19 19:17:40;;;;;;;;;;;;;;;;;;4939922;29;19922;-92
2023/03/19 19:20:06;;;;;;;;;;;;;;;;;;4923726;29;19926;-91
2023/03/19 19:22:35;;;;;;;;;;;;;;;;;;4940188;29;20425;-91
2023/03/19 19:25:01;;;;;;;;;;;;;;;;;;4922964;29;19962;-91
2023/03/19 19:27:31;;;;;;;;;;;;;;;;;;4939593;29;19933;-92
2023/03/19 19:29:59;;;;;;;;;;;;;;;;;;4923551;29;19923;-90
2023/03/19 19:32:25;;;;;;;;;;;;;;;;;;4923345;29;19989;-90
2023/03/19 19:34:51;;;;;;;;;;;;;;;;;;4922773;29;19930;-91
2023/03/19 19:37:17;;;;;;;;;;;;;;;;;;4922679;29;20146;-91
2023/03/19 19:39:43;;;;;;;;;;;;;;;;;;4923072;29;19922;-92
2023/03/19 19:42:09;;;;;;;;;;;;;;;;;;4923461;29;19929;-92
2023/03/19 19:44:38;;;;;;;;;;;;;;;;;;4926725;29;19923;-96
2023/03/19 19:47:07;;;;;;;;;;;;;;;;;;4947859;23;19926;-92
2023/03/19 19:49:33;;;;;;;;;;;;;;;;;;4923184;29;19922;-92
2023/03/19 19:52:02;;;;;;;;;;;;;;;;;;4939137;29;20013;-91
2023/03/19 19:54:28;;;;;;;;;;;;;;;;;;4923173;29;19972;-92
2023/03/19 19:56:54;;;;;;;;;;;;;;;;;;4905680;29;19930;-92
2023/03/19 19:59:20;;;;;;;;;;;;;;;;;;4904364;29;19926;-91
2023/03/19 20:01:46;;;;;;;;;;;;;;;;;;4904361;29;19977;-92
2023/03/19 20:09:50;;;;;;;;;;;;;;;;;;5030918;23;19997;-94
2023/03/19 20:12:50;;;;;;;;;;;;;;;;;;4939639;29;19933;-95
2023/03/19 20:15:25;;;;;;;;;;;;;;;;;;4934277;29;19927;-94
2023/03/19 20:17:52;;;;;;;;;;;;;;;;;;4905010;29;19961;-94
2023/03/19 20:20:19;;;;;;;;;;;;;;;;;;4920256;29;19923;-93
2023/03/19 20:22:45;;;;;;;;;;;;;;;;;;4904634;29;19930;-94
2023/03/19 20:25:11;;;;;;;;;;;;;;;;;;4903976;29;19923;-94
2023/03/19 20:27:37;;;;;;;;;;;;;;;;;;4904704;29;20248;-94
2023/03/19 20:30:03;;;;;;;;;;;;;;;;;;4904378;29;19933;-94
2023/03/19 20:32:29;;;;;;;;;;;;;;;;;;4904856;29;20018;-93
2023/03/19 20:34:55;;;;;;;;;;;;;;;;;;4904664;29;19946;-94
2023/03/19 20:37:21;;;;;;;;;;;;;;;;;;4904279;29;19929;-94
2023/03/19 20:39:47;;;;;;;;;;;;;;;;;;4904270;29;19922;-94
2023/03/19 20:42:13;;;;;;;;;;;;;;;;;;4903604;29;19985;-94
2023/03/19 20:44:39;;;;;;;;;;;;;;;;;;4904372;29;20029;-94
2023/03/19 20:47:05;;;;;;;;;;;;;;;;;;4904427;29;19973;-96
2023/03/19 20:49:31;;;;;;;;;;;;;;;;;;4904704;29;19931;-94
2023/03/19 20:51:57;;;;;;;;;;;;;;;;;;4904940;29;19931;-95
2023/03/19 20:54:23;;;;;;;;;;;;;;;;;;4904225;29;20290;-94
2023/03/19 20:56:49;;;;;;;;;;;;;;;;;;4904008;29;19923;-95
2023/03/19 20:59:15;;;;;;;;;;;;;;;;;;4904641;29;19974;-96
2023/03/19 21:01:43;;;;;;;;;;;;;;;;;;4904238;29;19923;-96
2023/03/19 21:04:09;;;;;;;;;;;;;;;;;;4905690;29;20010;-95
2023/03/19 21:06:43;;;;;;;;;;;;;;;;;;4905562;29;20370;-96
2023/03/19 21:09:09;;;;;;;;;;;;;;;;;;4904533;29;19934;-95
2023/03/19 21:11:38;;;;;;;;;;;;;;;;;;4921241;29;19931;-95
2023/03/19 21:14:05;;;;;;;;;;;;;;;;;;4903913;29;19926;-90
2023/03/19 21:16:32;;;;;;;;;;;;;;;;;;4903131;29;20125;-90
2023/03/19 21:18:59;;;;;;;;;;;;;;;;;;4903344;29;19926;-91
2023/03/19 21:21:34;;;;;;;;;;;;;;;;;;4914229;28;19922;-96
2023/03/19 21:24:00;;;;;;;;;;;;;;;;;;4926192;29;19922;-93
2023/03/19 21:26:26;;;;;;;;;;;;;;;;;;4923634;29;20360;-95
2023/03/19 21:28:52;;;;;;;;;;;;;;;;;;4922417;29;20424;-95
2023/03/19 21:31:19;;;;;;;;;;;;;;;;;;4923080;29;19977;-95
2023/03/19 21:33:45;;;;;;;;;;;;;;;;;;4922590;29;19985;-93
2023/03/19 21:36:11;;;;;;;;;;;;;;;;;;4923107;29;19922;-96
2023/03/19 21:38:37;;;;;;;;;;;;;;;;;;4926693;29;19926;-95
2023/03/19 21:41:03;;;;;;;;;;;;;;;;;;4926725;29;20016;-94
2023/03/19 21:46:23;;;;;;;;;;;;;;;;;;5529179;23;20033;-96
2023/03/19 21:48:53;;;;;;;;;;;;;;;;;;4943217;29;19922;-96
2023/03/19 21:51:24;;;;;;;;;;;;;;;;;;4930842;29;19969;-95
2023/03/19 21:56:36;;;;;;;;;;;;;;;;;;5383407;23;20037;-96
2023/03/19 21:59:02;;;;;;;;;;;;;;;;;;4927473;29;19928;-92
2023/03/19 22:01:28;;;;;;;;;;;;;;;;;;4925639;29;19922;-94
2023/03/19 22:03:54;;;;;;;;;;;;;;;;;;4926309;29;19926;-93
2023/03/19 22:06:20;;;;;;;;;;;;;;;;;;4913133;29;19923;-94
2023/03/19 22:08:52;;;;;;;;;;;;;;;;;;4907154;29;19923;-92
2023/03/19 22:11:18;;;;;;;;;;;;;;;;;;4907117;29;19922;-94
2023/03/19 22:13:44;;;;;;;;;;;;;;;;;;4906497;29;20038;-95
2023/03/19 22:16:11;;;;;;;;;;;;;;;;;;4906769;29;19958;-94
2023/03/19 22:18:37;;;;;;;;;;;;;;;;;;4906677;29;19923;-94
2023/03/19 22:21:03;;;;;;;;;;;;;;;;;;4906827;29;20065;-95
2023/03/19 22:23:29;;;;;;;;;;;;;;;;;;4906968;29;19922;-96
2023/03/19 22:25:55;;;;;;;;;;;;;;;;;;4905976;29;19970;-95
2023/03/19 22:28:21;;;;;;;;;;;;;;;;;;4906588;29;19930;-96
2023/03/19 22:30:47;;;;;;;;;;;;;;;;;;4906767;29;19927;-95
2023/03/19 22:33:16;;;;;;;;;;;;;;;;;;4906934;29;20370;-96
2023/03/19 22:35:42;;;;;;;;;;;;;;;;;;4906340;29;19929;-95
2023/03/19 22:38:08;;;;;;;;;;;;;;;;;;4906991;29;19923;-94
2023/03/19 22:40:34;;;;;;;;;;;;;;;;;;4906979;29;20375;-95
2023/03/19 22:43:00;;;;;;;;;;;;;;;;;;4906529;29;19923;-94
2023/03/19 22:45:26;;;;;;;;;;;;;;;;;;4906798;29;19933;-95
2023/03/19 22:47:52;;;;;;;;;;;;;;;;;;4905877;29;19930;-94
2023/03/19 22:50:18;;;;;;;;;;;;;;;;;;4906919;29;19923;-93
2023/03/19 22:52:44;;;;;;;;;;;;;;;;;;4905815;29;19938;-93
2023/03/19 22:55:10;;;;;;;;;;;;;;;;;;4905356;29;19923;-93
2023/03/19 22:57:36;;;;;;;;;;;;;;;;;;4906206;29;19923;-93
2023/03/19 23:00:03;;;;;;;;;;;;;;;;;;4906360;29;19923;-93
2023/03/19 23:02:29;;;;;;;;;;;;;;;;;;4906428;29;20363;-94
2023/03/19 23:04:55;;;;;;;;;;;;;;;;;;4922118;29;19978;-95
2023/03/19 23:07:21;;;;;;;;;;;;;;;;;;4905429;29;20375;-94
2023/03/19 23:09:46;;;;;;;;;;;;;;;;;;4905960;29;20358;-96
2023/03/19 23:12:12;;;;;;;;;;;;;;;;;;4905922;29;19941;-96
2023/03/19 23:14:38;;;;;;;;;;;;;;;;;;4905875;29;19923;-96
2023/03/19 23:17:05;;;;;;;;;;;;;;;;;;4906082;29;19927;-96
2023/03/19 23:19:31;;;;;;;;;;;;;;;;;;4905730;29;19978;-94
2023/03/19 23:21:58;;;;;;;;;;;;;;;;;;4905892;29;19930;-94
2023/03/19 23:24:24;;;;;;;;;;;;;;;;;;4905758;29;19966;-93
2023/03/19 23:26:50;;;;;;;;;;;;;;;;;;4920880;29;19974;-94
2023/03/19 23:29:16;;;;;;;;;;;;;;;;;;4905100;29;19930;-94
2023/03/19 23:31:45;;;;;;;;;;;;;;;;;;4906135;29;19978;-94
2023/03/19 23:34:11;;;;;;;;;;;;;;;;;;4905588;29;19923;-94
2023/03/19 23:36:37;;;;;;;;;;;;;;;;;;4905384;29;19930;-94
2023/03/19 23:39:03;;;;;;;;;;;;;;;;;;4905653;29;19923;-94
2023/03/19 23:41:29;;;;;;;;;;;;;;;;;;4905714;29;19922;-92
2023/03/19 23:43:55;;;;;;;;;;;;;;;;;;4905991;29;19994;-94
2023/03/19 23:46:21;;;;;;;;;;;;;;;;;;4904434;29;19929;-93
2023/03/19 23:48:47;;;;;;;;;;;;;;;;;;4905266;29;19923;-94
2023/03/19 23:51:13;;;;;;;;;;;;;;;;;;4905205;29;19922;-95
2023/03/19 23:53:39;;;;;;;;;;;;;;;;;;4905257;29;19927;-93
2023/03/19 23:56:07;;;;;;;;;;;;;;;;;;4904562;29;20211;-95
2023/03/19 23:58:38;;;;;;;;;;;;;;;;;;4905178;29;19930;-95
